createdAt,value
2022-11-03T00:01:37.954Z,8.82
2022-11-03T00:07:11.577Z,8.80
2022-11-03T00:12:43.405Z,8.80
2022-11-03T00:23:47.196Z,8.78
2022-11-03T00:29:18.922Z,8.75
2022-11-03T00:34:50.766Z,8.75
2022-11-03T00:40:22.738Z,8.72
2022-11-03T00:45:54.696Z,8.70
2022-11-03T00:53:39.015Z,8.68
2022-11-03T00:59:10.920Z,8.68
2022-11-03T01:04:42.831Z,8.64
2022-11-03T01:10:14.527Z,8.64
2022-11-03T01:15:46.492Z,8.57
2022-11-03T01:21:18.114Z,8.53
2022-11-03T01:32:21.573Z,8.53
2022-11-03T01:37:53.356Z,8.54
2022-11-03T01:43:25.485Z,8.46
2022-11-03T01:48:57.249Z,8.44
2022-11-03T01:54:28.829Z,8.40
2022-11-03T02:05:32.422Z,8.29
2022-11-03T02:11:04.265Z,8.25
2022-11-03T02:16:36.075Z,8.22
2022-11-03T02:24:29.583Z,8.15
2022-11-03T02:30:01.432Z,8.16
2022-11-03T02:35:33.342Z,8.05
2022-11-03T02:41:05.104Z,8.01
2022-11-03T02:46:36.859Z,7.90
2022-11-03T02:52:08.610Z,7.86
2022-11-03T03:03:12.198Z,7.80
2022-11-03T03:08:44.041Z,7.73
2022-11-03T03:14:15.894Z,7.67
2022-11-03T03:19:47.702Z,7.63
2022-11-03T03:25:19.164Z,7.63
2022-11-03T03:30:50.652Z,7.63
2022-11-03T03:36:22.762Z,7.66
2022-11-03T03:41:54.399Z,7.67
2022-11-03T03:47:26.147Z,7.67
2022-11-03T03:52:57.952Z,7.66
2022-11-03T03:58:30.170Z,7.63
2022-11-03T04:04:01.841Z,7.57
2022-11-03T04:09:33.616Z,7.53
2022-11-03T04:15:05.321Z,7.53
2022-11-03T04:20:37.037Z,7.52
2022-11-03T04:31:38.560Z,7.52
2022-11-03T04:37:10.314Z,7.49
2022-11-03T04:42:42.600Z,7.47
2022-11-03T04:48:14.213Z,7.45
2022-11-03T04:53:46.389Z,7.45
2022-11-03T04:59:18.342Z,7.46
2022-11-03T05:04:50.075Z,7.47
2022-11-03T05:10:21.830Z,7.45
2022-11-03T05:15:53.732Z,7.43
2022-11-03T05:21:25.627Z,7.42
2022-11-03T05:26:57.379Z,7.38
2022-11-03T05:32:29.340Z,7.38
2022-11-03T05:38:01.021Z,7.36
2022-11-03T05:43:32.770Z,7.35
2022-11-03T05:49:04.846Z,7.36
2022-11-03T05:54:36.535Z,7.39
2022-11-03T06:00:14.477Z,7.50
2022-11-03T06:05:46.594Z,7.53
2022-11-03T06:11:18.273Z,7.64
2022-11-03T06:16:49.963Z,7.66
2022-11-03T06:22:21.890Z,7.73
2022-11-03T06:27:53.637Z,7.76
2022-11-03T06:33:25.397Z,7.90
2022-11-03T06:38:57.273Z,7.98
2022-11-03T06:44:28.947Z,8.22
2022-11-03T06:50:00.728Z,8.31
2022-11-03T06:55:32.797Z,8.40
2022-11-03T07:01:05.154Z,8.60
2022-11-03T07:06:37.183Z,8.71
2022-11-03T07:12:09.045Z,8.92
2022-11-03T07:17:40.573Z,9.05
2022-11-03T07:23:12.482Z,9.21
2022-11-03T07:28:44.312Z,9.29
2022-11-03T07:34:16.235Z,9.50
2022-11-03T07:39:48.469Z,9.65
2022-11-03T07:45:20.500Z,9.98
2022-11-03T07:50:52.744Z,10.15
2022-11-03T07:56:24.631Z,10.44
2022-11-03T08:01:56.602Z,10.56
2022-11-03T08:07:28.365Z,10.84
2022-11-03T08:13:00.230Z,11.06
2022-11-03T08:18:31.872Z,11.99
2022-11-03T08:24:03.908Z,12.58
2022-11-03T08:29:35.661Z,13.25
2022-11-03T08:35:07.438Z,13.80
2022-11-03T08:40:39.368Z,15.23
2022-11-03T08:46:17.072Z,15.90
2022-11-03T08:51:44.595Z,16.79
2022-11-03T08:57:14.726Z,17.06
2022-11-03T09:02:46.992Z,17.22
2022-11-03T09:13:51.022Z,17.05
2022-11-03T09:19:23.256Z,16.86
2022-11-03T09:24:54.909Z,16.39
2022-11-03T09:30:26.943Z,16.21
2022-11-03T09:35:58.386Z,15.84
2022-11-03T09:41:53.759Z,15.67
2022-11-03T09:47:02.705Z,15.51
2022-11-03T09:52:34.557Z,15.46
2022-11-03T09:58:06.617Z,15.26
2022-11-03T10:03:39.155Z,15.19
2022-11-03T10:09:11.097Z,15.12
2022-11-03T10:14:42.925Z,15.05
2022-11-03T10:20:14.723Z,14.88
2022-11-03T10:25:46.128Z,14.75
2022-11-03T10:31:18.164Z,14.56
2022-11-03T10:36:50.754Z,14.60
2022-11-03T10:42:22.678Z,14.64
2022-11-03T10:47:59.585Z,14.61
2022-11-03T11:04:31.546Z,14.38
2022-11-03T11:10:03.496Z,14.36
2022-11-03T11:15:35.463Z,14.31
2022-11-03T11:21:07.354Z,14.29
2022-11-03T11:26:39.714Z,14.24
2022-11-03T11:32:12.057Z,14.19
2022-11-03T11:37:44.254Z,14.21
2022-11-03T11:43:16.368Z,14.36
2022-11-03T11:59:52.721Z,14.54
2022-11-03T12:05:25.163Z,14.72
2022-11-03T12:10:57.390Z,14.84
2022-11-03T12:16:29.558Z,15.09
2022-11-03T12:22:01.668Z,15.21
2022-11-03T12:27:33.518Z,15.67
2022-11-03T12:33:05.467Z,15.79
2022-11-03T12:38:37.292Z,16.06
2022-11-03T12:44:09.499Z,16.13
2022-11-03T12:49:42.143Z,16.21
2022-11-03T12:55:13.916Z,16.23
2022-11-03T13:00:49.973Z,16.37
2022-11-03T13:06:17.800Z,16.34
2022-11-03T13:11:49.928Z,16.26
2022-11-03T13:22:51.497Z,16.34
2022-11-03T13:28:23.433Z,16.39
2022-11-03T13:41:46.052Z,16.09
2022-11-03T13:47:18.193Z,16.08
2022-11-03T13:52:50.259Z,16.03
2022-11-03T14:09:25.477Z,15.89
2022-11-03T14:14:57.154Z,15.60
2022-11-03T14:26:13.300Z,15.23
2022-11-03T14:31:32.173Z,15.17
2022-11-03T14:37:04.060Z,15.07
2022-11-03T14:42:35.826Z,14.91
2022-11-03T14:48:07.850Z,14.64
2022-11-03T14:53:39.508Z,14.56
2022-11-03T14:59:11.290Z,14.33
2022-11-03T15:04:42.930Z,14.29
2022-11-03T15:10:14.533Z,14.15
2022-11-03T15:15:46.742Z,14.05
2022-11-03T15:21:18.385Z,13.86
2022-11-03T15:29:10.375Z,13.73
2022-11-03T15:34:41.955Z,13.68
2022-11-03T15:40:13.953Z,13.47
2022-11-03T15:48:06.320Z,13.27
2022-11-03T15:53:38.337Z,13.27
2022-11-03T15:59:10.136Z,13.06
2022-11-03T16:04:41.886Z,12.98
2022-11-03T16:10:13.571Z,12.85
2022-11-03T16:15:45.430Z,12.81
2022-11-03T16:21:17.082Z,12.75
2022-11-03T16:26:49.107Z,12.68
2022-11-03T16:32:20.979Z,12.64
2022-11-03T16:37:54.484Z,12.61
2022-11-03T16:43:26.538Z,12.57
2022-11-03T16:54:28.073Z,12.53
2022-11-03T17:00:00.077Z,12.51
2022-11-03T17:05:31.770Z,12.48
2022-11-03T17:11:03.350Z,12.47
2022-11-03T17:16:34.816Z,12.44
2022-11-03T17:22:06.703Z,12.46
2022-11-03T17:27:38.692Z,12.41
2022-11-03T17:33:10.349Z,12.41
2022-11-03T17:38:42.350Z,12.39
2022-11-03T17:44:13.980Z,12.41
2022-11-03T17:49:45.663Z,12.39
2022-11-03T17:55:17.629Z,12.37
2022-11-03T18:00:49.178Z,12.41
2022-11-03T18:06:20.947Z,12.39
2022-11-03T18:11:52.716Z,12.41
2022-11-03T18:17:24.304Z,12.43
2022-11-03T18:22:56.181Z,12.44
2022-11-03T18:28:28.016Z,12.46
2022-11-03T18:33:59.661Z,12.44
2022-11-03T18:39:31.466Z,12.48
2022-11-03T18:45:03.308Z,12.51
2022-11-03T18:50:34.922Z,12.54
2022-11-03T18:56:08.243Z,12.54
2022-11-03T19:01:40.590Z,12.60
2022-11-03T19:07:14.051Z,12.63
2022-11-03T19:12:46.045Z,12.71
2022-11-03T19:18:17.573Z,12.74
2022-11-03T19:23:51.808Z,12.78
2022-11-03T19:29:23.753Z,12.79
2022-11-03T19:34:55.541Z,12.81
2022-11-03T19:45:59.169Z,12.84
2022-11-03T19:51:31.291Z,12.84
2022-11-03T19:57:03.439Z,12.86
2022-11-03T20:02:35.967Z,12.91
2022-11-03T20:08:08.352Z,12.96
2022-11-03T20:13:40.061Z,12.96
2022-11-03T20:19:11.793Z,13.01
2022-11-03T20:24:43.836Z,12.99
2022-11-03T20:30:15.484Z,13.01
2022-11-03T20:35:47.490Z,12.99
2022-11-03T20:41:19.561Z,13.01
2022-11-03T20:46:51.316Z,13.05
2022-11-03T20:52:23.250Z,13.08
2022-11-03T20:57:55.069Z,13.08
2022-11-03T21:14:30.596Z,13.12
2022-11-03T21:20:04.127Z,13.13
2022-11-03T21:25:36.097Z,13.16
2022-11-03T21:31:08.429Z,13.22
2022-11-03T21:36:40.497Z,13.22
2022-11-03T21:42:12.915Z,13.31
2022-11-03T21:47:45.153Z,13.34
2022-11-03T21:53:17.469Z,13.37
2022-11-03T21:58:49.698Z,13.37
2022-11-03T22:04:21.945Z,13.37
2022-11-03T22:09:54.129Z,13.36
2022-11-03T22:15:25.837Z,13.29
2022-11-03T22:20:57.508Z,13.27
2022-11-03T22:26:29.237Z,13.25
2022-11-03T22:32:01.191Z,13.22
2022-11-03T22:39:53.972Z,0.00
2022-11-03T22:45:25.573Z,13.15
2022-11-03T22:50:57.335Z,13.12
2022-11-03T22:56:29.344Z,13.06
2022-11-03T23:02:01.613Z,13.01
2022-11-03T23:07:37.051Z,12.95
2022-11-03T23:13:04.631Z,12.92
2022-11-03T23:18:36.602Z,12.91
2022-11-03T23:24:08.343Z,12.92
2022-11-03T23:29:40.161Z,12.89
2022-11-03T23:35:12.139Z,12.96
2022-11-03T23:40:43.479Z,13.15
2022-11-03T23:46:15.233Z,13.26
2022-11-03T23:51:46.777Z,13.54
2022-11-03T23:57:18.554Z,13.64
